^^
Station Historical Data
Daily Summary for May 2, 2019 Units:  English    Metric   Both
« Previous Day
Next Day »
Daily Weekly Monthly Yearly Custom
  High: Low: Average:
Temperature: 59.9 °F 27.4 °F 44.2 °F
Dew Point: 41.3 °F 25.9 °F 32.8 °F
Humidity: 96% 34% 69%
Wind Speed: 21mph 0mph 7.4mph
Wind Gust: 30mph - -
Wind- - SSE
Pressure: 30.08 in 29.82 in -
Precipitation: 0.02 in    
Historical Graphs
 
 
Tabular Data for May 2, 2019
Time Temperature Dew Point Pressure Wind Wind Speed Wind Gust Humidity Rainfall Rate (Hourly) solar Conditions
00:04 32.9 °F 30.3 °F 30.07 in West 1 mph 3 mph 90% 0 in 0.00 W/m2
00:09 33 °F 30.7 °F 30.07 in West 2 mph 3 mph 91% 0 in 0.00 W/m2
00:14 33.2 °F 31.1 °F 30.07 in West 1 mph 3 mph 92% 0 in 0.00 W/m2
00:19 33.2 °F 31.1 °F 30.07 in Calm   3 mph 92% 0 in 0.00 W/m2
00:24 33.2 °F 31.1 °F 30.07 in West 1 mph 2 mph 92% 0 in 0.00 W/m2
00:29 33.1 °F 31 °F 30.07 in West 1 mph 2 mph 92% 0 in 0.00 W/m2
00:34 33.2 °F 31.1 °F 30.06 in West 1 mph 2 mph 92% 0 in 0.00 W/m2
00:39 33 °F 30.9 °F 30.07 in West 1 mph 2 mph 92% 0 in 0.00 W/m2
00:44 32.9 °F 30.8 °F 30.07 in Calm   2 mph 92% 0 in 0.00 W/m2
00:49 32.7 °F 30.6 °F 30.07 in West 2 mph 2 mph 92% 0 in 0.00 W/m2
00:54 32.7 °F 30.6 °F 30.07 in West 3 mph 3 mph 92% 0 in 0.00 W/m2
00:59 32.7 °F 30.6 °F 30.08 in West 3 mph 4 mph 92% 0 in 0.00 W/m2
01:04 32.4 °F 30.3 °F 30.08 in WSW 3 mph 4 mph 92% 0 in 0.00 W/m2
01:09 32.1 °F 30 °F 30.08 in WSW 3 mph 4 mph 92% 0 in 0.00 W/m2
01:14 31.9 °F 29.8 °F 30.08 in WSW 2 mph 4 mph 92% 0 in 0.00 W/m2
01:19 31.7 °F 29.6 °F 30.07 in WSW 2 mph 4 mph 92% 0 in 0.00 W/m2
01:24 31.5 °F 29.7 °F 30.08 in Calm   2 mph 93% 0 in 0.00 W/m2
01:29 31.4 °F 29.6 °F 30.08 in Calm   1 mph 93% 0 in 0.00 W/m2
01:34 31.4 °F 29.6 °F 30.07 in Calm   1 mph 93% 0 in 0.00 W/m2
01:39 31.6 °F 29.8 °F 30.07 in Calm   1 mph 93% 0 in 0.00 W/m2
01:44 31.7 °F 29.9 °F 30.07 in Calm     93% 0 in 0.00 W/m2
01:49 31.9 °F 30.4 °F 30.07 in Calm     94% 0 in 0.00 W/m2
01:54 31.9 °F 30.4 °F 30.07 in WSW 1 mph 2 mph 94% 0 in 0.00 W/m2
01:59 31.9 °F 30.4 °F 30.07 in WSW 1 mph 2 mph 94% 0 in 0.00 W/m2
02:04 31.9 °F 30.4 °F 30.07 in WSW 1 mph 2 mph 94% 0 in 0.00 W/m2
02:09 31.8 °F 30 °F 30.07 in SW 2 mph 3 mph 93% 0 in 0.00 W/m2
02:14 31.6 °F 29.8 °F 30.07 in SSW 3 mph 4 mph 93% 0 in 0.00 W/m2
02:19 31.5 °F 29.7 °F 30.07 in SSW 3 mph 4 mph 93% 0 in 0.00 W/m2
02:24 31.3 °F 29.5 °F 30.07 in SSW 3 mph 4 mph 93% 0 in 0.00 W/m2
02:29 31.1 °F 29.3 °F 30.07 in SSW 2 mph 4 mph 93% 0 in 0.00 W/m2
02:34 31.1 °F 29.3 °F 30.07 in SSW 1 mph 3 mph 93% 0 in 0.00 W/m2
02:39 31 °F 29.2 °F 30.07 in SSW 1 mph 3 mph 93% 0 in 0.00 W/m2
02:44 30.8 °F 29 °F 30.07 in Calm   2 mph 93% 0 in 0.00 W/m2
02:49 30.7 °F 29.2 °F 30.07 in Calm   2 mph 94% 0 in 0.00 W/m2
02:54 30.7 °F 29.2 °F 30.07 in SSW 1 mph 2 mph 94% 0 in 0.00 W/m2
02:59 30.7 °F 29.2 °F 30.07 in SSW 2 mph 3 mph 94% 0 in 0.00 W/m2
03:04 30.7 °F 29.2 °F 30.07 in SSW 3 mph 3 mph 94% 0 in 0.00 W/m2
03:09 30.6 °F 29.1 °F 30.07 in SSW 2 mph 3 mph 94% 0 in 0.00 W/m2
03:14 30.5 °F 29 °F 30.07 in SSW 3 mph 3 mph 94% 0 in 0.00 W/m2
03:19 30.5 °F 29 °F 30.07 in SSW 3 mph 4 mph 94% 0 in 0.00 W/m2
03:24 30.5 °F 29 °F 30.07 in SSW 3 mph 4 mph 94% 0 in 0.00 W/m2
03:29 30.6 °F 29.1 °F 30.07 in SSW 2 mph 3 mph 94% 0 in 0.00 W/m2
03:34 30.6 °F 29.1 °F 30.07 in SSW 2 mph 3 mph 94% 0 in 0.00 W/m2
03:39 30.6 °F 29.1 °F 30.07 in SSW 2 mph 3 mph 94% 0 in 0.00 W/m2
03:44 30.8 °F 29.3 °F 30.07 in SSW 2 mph 3 mph 94% 0 in 0.00 W/m2
03:49 31 °F 29.7 °F 30.07 in SSW 2 mph 3 mph 95% 0 in 0.00 W/m2
03:54 31 °F 29.7 °F 30.07 in SSW 3 mph 4 mph 95% 0 in 0.00 W/m2
03:59 30.6 °F 29.1 °F 30.07 in SSW 3 mph 4 mph 94% 0 in 0.00 W/m2
04:04 30.3 °F 28.8 °F 30.06 in SSW 3 mph 4 mph 94% 0 in 0.00 W/m2
04:09 30.2 °F 28.7 °F 30.06 in SSW 2 mph 3 mph 94% 0 in 0.00 W/m2
04:14 30.1 °F 28.6 °F 30.06 in South 1 mph 2 mph 94% 0 in 0.00 W/m2
04:19 29.8 °F 28.3 °F 30.06 in South 1 mph 2 mph 94% 0 in 0.00 W/m2
04:24 29.6 °F 28.1 °F 30.06 in South 2 mph 2 mph 94% 0 in 0.00 W/m2
04:29 29.5 °F 28 °F 30.06 in South 2 mph 3 mph 94% 0 in 0.00 W/m2
04:34 29.4 °F 27.9 °F 30.06 in South 2 mph 3 mph 94% 0 in 0.00 W/m2
04:39 29.5 °F 28 °F 30.06 in South 2 mph 3 mph 94% 0 in 0.00 W/m2
04:44 29.4 °F 27.9 °F 30.06 in South 3 mph 3 mph 94% 0 in 0.00 W/m2
04:49 29.4 °F 28.1 °F 30.06 in South 2 mph 4 mph 95% 0 in 0.00 W/m2
04:54 29.3 °F 27.8 °F 30.06 in SSE 2 mph 4 mph 94% 0 in 0.00 W/m2
04:59 29.3 °F 27.8 °F 30.06 in Calm   4 mph 94% 0 in 0.00 W/m2
05:04 29.3 °F 28 °F 30.06 in SSE 1 mph 3 mph 95% 0 in 0.00 W/m2
05:09 29.2 °F 27.9 °F 30.05 in SSE 2 mph 2 mph 95% 0 in 0.00 W/m2
05:14 29.1 °F 27.8 °F 30.06 in SSE 1 mph 2 mph 95% 0 in 0.00 W/m2
05:19 29.3 °F 28 °F 30.05 in SSE 1 mph 3 mph 95% 0 in 0.00 W/m2
05:24 29.4 °F 28.1 °F 30.05 in SSE 1 mph 3 mph 95% 0 in 0.00 W/m2
05:29 29.3 °F 28 °F 30.05 in SSE 2 mph 2 mph 95% 0 in 0.00 W/m2
05:34 29.2 °F 27.9 °F 30.05 in SSE 2 mph 2 mph 95% 0 in 0.00 W/m2
05:39 29 °F 27.7 °F 30.05 in SSE 2 mph 3 mph 95% 0 in 0.00 W/m2
05:44 28.5 °F 27 °F 30.05 in SSE 2 mph 3 mph 94% 0 in 0.00 W/m2
05:49 28.7 °F 27.4 °F 30.05 in SSE 3 mph 4 mph 95% 0 in 0.00 W/m2
05:54 28.7 °F 27.4 °F 30.05 in SE 4 mph 4 mph 95% 0 in 0.00 W/m2
05:59 29 °F 27.7 °F 30.05 in SE 2 mph 5 mph 95% 0 in 0.00 W/m2
06:04 29.4 °F 28.1 °F 30.05 in SE 2 mph 5 mph 95% 0 in 0.00 W/m2
06:09 29.2 °F 27.9 °F 30.05 in SE 2 mph 3 mph 95% 0 in 0.00 W/m2
06:14 29 °F 27.7 °F 30.06 in SE 3 mph 4 mph 95% 0 in 0.00 W/m2
06:19 28.7 °F 27.2 °F 30.06 in SE 3 mph 4 mph 94% 0 in 0.00 W/m2
06:24 28.5 °F 27.3 °F 30.06 in SE 1 mph 4 mph 95% 0 in 5.00 W/m2
06:29 28.2 °F 26.7 °F 30.05 in ESE 3 mph 4 mph 94% 0 in 5.00 W/m2
06:34 27.8 °F 26.3 °F 30.05 in ESE 2 mph 4 mph 94% 0 in 7.00 W/m2
06:39 27.5 °F 26 °F 30.05 in ESE 3 mph 4 mph 94% 0 in 11.00 W/m2
06:44 27.4 °F 25.9 °F 30.05 in ESE 4 mph 5 mph 94% 0 in 12.00 W/m2
06:49 27.8 °F 26.6 °F 30.05 in SE 4 mph 7 mph 95% 0 in 14.00 W/m2
06:54 28.1 °F 26.9 °F 30.05 in ESE 3 mph 7 mph 95% 0 in 18.00 W/m2
06:59 28.1 °F 26.9 °F 30.05 in SE 4 mph 5 mph 95% 0 in 21.00 W/m2
07:04 28.1 °F 26.9 °F 30.05 in ESE 4 mph 7 mph 95% 0 in 25.00 W/m2
07:09 27.9 °F 26.7 °F 30.05 in ESE 3 mph 7 mph 95% 0 in 33.00 W/m2
07:14 27.6 °F 26.4 °F 30.05 in ESE 5 mph 7 mph 95% 0 in 39.00 W/m2
07:19 27.4 °F 26.2 °F 30.05 in ESE 4 mph 7 mph 95% 0 in 46.00 W/m2
07:24 27.4 °F 26.2 °F 30.05 in ESE 4 mph 5 mph 95% 0 in 49.00 W/m2
07:29 27.5 °F 26.3 °F 30.06 in ESE 3 mph 5 mph 95% 0 in 54.00 W/m2
07:34 27.6 °F 26.4 °F 30.06 in ESE 4 mph 5 mph 95% 0 in 54.00 W/m2
07:39 27.8 °F 26.6 °F 30.05 in ESE 5 mph 5 mph 95% 0 in 56.00 W/m2
07:44 27.9 °F 26.7 °F 30.05 in SE 5 mph 6 mph 95% 0 in 54.00 W/m2
07:49 28.3 °F 27.1 °F 30.05 in ESE 3 mph 7 mph 95% 0 in 72.00 W/m2
07:54 28.4 °F 27.2 °F 30.05 in ESE 3 mph 7 mph 95% 0 in 109.00 W/m2
07:59 28.6 °F 27.4 °F 30.05 in ESE 4 mph 7 mph 95% 0 in 109.00 W/m2
08:04 29 °F 27.7 °F 30.05 in ESE 4 mph 5 mph 95% 0 in 160.00 W/m2
08:09 29.6 °F 28.3 °F 30.05 in SE 3 mph 5 mph 95% 0 in 176.00 W/m2
08:14 30.2 °F 29.2 °F 30.05 in ESE 3 mph 5 mph 96% 0 in 172.00 W/m2
08:19 30.7 °F 29.7 °F 30.05 in ESE 5 mph 5 mph 96% 0 in 165.00 W/m2
08:24 30.9 °F 29.9 °F 30.05 in ESE 3 mph 5 mph 96% 0 in 209.00 W/m2
08:29 30.8 °F 29.8 °F 30.05 in ESE 8 mph 8 mph 96% 0 in 176.00 W/m2
08:34 30.7 °F 29.7 °F 30.05 in SE 5 mph 10 mph 96% 0 in 186.00 W/m2
08:39 31.1 °F 29.8 °F 30.05 in ESE 7 mph 11 mph 95% 0 in 176.00 W/m2
08:44 31.5 °F 30.5 °F 30.05 in ESE 9 mph 11 mph 96% 0 in 264.00 W/m2
08:49 31.9 °F 30.9 °F 30.05 in ESE 8 mph 11 mph 96% 0 in 253.00 W/m2
08:54 32 °F 31 °F 30.05 in ESE 7 mph 11 mph 96% 0 in 258.00 W/m2
08:59 32.2 °F 31.2 °F 30.05 in SE 6 mph 11 mph 96% 0 in 308.00 W/m2
09:04 32.5 °F 31.5 °F 30.04 in ESE 8 mph 11 mph 96% 0 in 404.00 W/m2
09:09 33 °F 32 °F 30.04 in SE 8 mph 11 mph 96% 0 in 343.00 W/m2
09:14 33.4 °F 32.4 °F 30.04 in SE 6 mph 11 mph 96% 0 in 394.00 W/m2
09:19 34.1 °F 33.1 °F 30.04 in ESE 5 mph 10 mph 96% 0 in 392.00 W/m2
09:24 34.8 °F 33.8 °F 30.04 in SE 6 mph 10 mph 96% 0 in 464.00 W/m2
09:29 35.8 °F 34.8 °F 30.04 in SE 6 mph 10 mph 96% 0 in 489.00 W/m2
09:34 36 °F 35 °F 30.04 in SE 6 mph 10 mph 96% 0 in 501.00 W/m2
09:39 36.5 °F 35.5 °F 30.04 in SE 6 mph 10 mph 96% 0 in 513.00 W/m2
09:44 37.4 °F 36.4 °F 30.04 in SE 6 mph 10 mph 96% 0 in 533.00 W/m2
09:49 37.9 °F 36.9 °F 30.04 in SE 6 mph 10 mph 96% 0 in 548.00 W/m2
09:54 38.4 °F 37.4 °F 30.04 in SE 6 mph 10 mph 96% 0 in 564.00 W/m2
09:59 38.8 °F 37.8 °F 30.03 in SE 6 mph 10 mph 96% 0 in 575.00 W/m2
10:04 39.3 °F 38.3 °F 30.03 in SE 6 mph 10 mph 96% 0 in 589.00 W/m2
10:09 39.8 °F 38.8 °F 30.04 in SE 6 mph 10 mph 96% 0 in 601.00 W/m2
10:14 40.6 °F 39.5 °F 30.03 in SE 6 mph 10 mph 96% 0 in 615.00 W/m2
10:19 41.3 °F 40 °F 30.03 in SE 6 mph 10 mph 95% 0 in 628.00 W/m2
10:24 42.5 °F 40.3 °F 30.03 in SE 6 mph 10 mph 92% 0 in 642.00 W/m2
10:29 43.3 °F 40.3 °F 30.03 in SE 6 mph 12 mph 89% 0 in 654.00 W/m2
10:34 44.1 °F 39.6 °F 30.02 in SE 10 mph 13 mph 84% 0 in 666.00 W/m2
10:39 44.6 °F 39.4 °F 30.02 in SE 8 mph 13 mph 82% 0 in 679.00 W/m2
10:44 45.6 °F 39.8 °F 30.02 in SSE 8 mph 12 mph 80% 0 in 691.00 W/m2
10:49 46.1 °F 39.3 °F 30.02 in South 7 mph 12 mph 77% 0 in 698.00 W/m2
10:54 46.7 °F 39.2 °F 30.02 in South 6 mph 13 mph 75% 0 in 696.00 W/m2
10:59 47.2 °F 39 °F 30.02 in SSE 7 mph 13 mph 73% 0 in 671.00 W/m2
11:04 47.6 °F 38.3 °F 30.02 in South 7 mph 16 mph 70% 0 in 640.00 W/m2
11:09 48 °F 39.8 °F 30.02 in SE 9 mph 16 mph 73% 0 in 612.00 W/m2
11:14 48.6 °F 38.9 °F 30.02 in SE 10 mph 16 mph 69% 0 in 599.00 W/m2
11:19 48.6 °F 38.5 °F 30.02 in SSE 7 mph 16 mph 68% 0 in 605.00 W/m2
11:24 48.7 °F 38.6 °F 30.01 in South 9 mph 14 mph 68% 0 in 642.00 W/m2
11:29 48.2 °F 37.8 °F 30.01 in SSE 9 mph 18 mph 67% 0 in 810.00 W/m2
11:34 49.1 °F 38.6 °F 30.01 in South 11 mph 18 mph 67% 0 in 949.00 W/m2
11:39 48.8 °F 37.9 °F 30.01 in SSW 4 mph 16 mph 66% 0 in 944.00 W/m2
11:44 49.1 °F 38.6 °F 30.01 in South 9 mph 16 mph 67% 0 in 870.00 W/m2
11:49 49.6 °F 37.1 °F 30.00 in SSW 9 mph 20 mph 62% 0 in 861.00 W/m2
11:54 50.4 °F 37.4 °F 30.00 in SSE 16 mph 20 mph 61% 0 in 860.00 W/m2
11:59 50.9 °F 37.5 °F 30.00 in South 11 mph 19 mph 60% 0 in 888.00 W/m2
12:04 51.2 °F 36.5 °F 30.00 in SSE 11 mph 18 mph 57% 0 in 854.00 W/m2
12:09 51.5 °F 37.2 °F 30.00 in South 10 mph 18 mph 58% 0 in 854.00 W/m2
12:14 52.1 °F 36.9 °F 30.00 in SSW 12 mph 18 mph 56% 0 in 868.00 W/m2
12:19 52 °F 36.8 °F 30.00 in South 9 mph 17 mph 56% 0 in 939.00 W/m2
12:24 52.3 °F 37.5 °F 30.00 in South 8 mph 18 mph 57% 0 in 902.00 W/m2
12:29 52.3 °F 37.1 °F 30.00 in South 11 mph 18 mph 56% 0 in 947.00 W/m2
12:34 51.7 °F 36 °F 29.99 in South 11 mph 17 mph 55% 0 in 141.00 W/m2
12:39 52 °F 37.7 °F 29.99 in South 14 mph 19 mph 58% 0 in 953.00 W/m2
12:44 52.2 °F 36 °F 29.99 in SSE 13 mph 19 mph 54% 0 in 1013.00 W/m2
12:49 51.7 °F 36.5 °F 29.99 in SSW 8 mph 17 mph 56% 0 in 1058.00 W/m2
12:54 52.1 °F 36.4 °F 29.99 in South 12 mph 17 mph 55% 0 in 981.00 W/m2
12:59 53.5 °F 36.8 °F 29.98 in South 10 mph 21 mph 53% 0 in 1020.00 W/m2
13:04 53 °F 36.3 °F 29.98 in South 10 mph 21 mph 53% 0 in 1027.00 W/m2
13:09 53.5 °F 35.8 °F 29.98 in South 15 mph 22 mph 51% 0 in 1007.00 W/m2
13:14 54.1 °F 35.9 °F 29.98 in South 11 mph 22 mph 50% 0 in 947.00 W/m2
13:19 54.5 °F 37.7 °F 29.98 in SSW 9 mph 16 mph 53% 0 in 916.00 W/m2
13:24 54.5 °F 35.7 °F 29.97 in South 10 mph 22 mph 49% 0 in 919.00 W/m2
13:29 54.8 °F 36 °F 29.97 in SSW 10 mph 22 mph 49% 0 in 933.00 W/m2
13:34 55.1 °F 35.7 °F 29.97 in SE 13 mph 19 mph 48% 0 in 926.00 W/m2
13:39 54.7 °F 37.4 °F 29.96 in South 10 mph 18 mph 52% 0 in 926.00 W/m2
13:44 55 °F 34.6 °F 29.96 in SSE 12 mph 23 mph 46% 0 in 919.00 W/m2
13:49 54.6 °F 35.3 °F 29.96 in SSE 12 mph 23 mph 48% 0 in 916.00 W/m2
13:54 54.8 °F 34.4 °F 29.96 in SSE 9 mph 22 mph 46% 0 in 925.00 W/m2
13:59 55.2 °F 35.3 °F 29.95 in South 18 mph 30 mph 47% 0 in 932.00 W/m2
14:04 55.3 °F 35.4 °F 29.95 in SSE 16 mph 30 mph 47% 0 in 911.00 W/m2
14:09 55.2 °F 34.8 °F 29.95 in SSW 13 mph 21 mph 46% 0 in 909.00 W/m2
14:14 55.9 °F 35.4 °F 29.95 in South 13 mph 19 mph 46% 0 in 916.00 W/m2
14:19 56.4 °F 34.7 °F 29.94 in SSW 11 mph 18 mph 44% 0 in 905.00 W/m2
14:24 56.3 °F 35.8 °F 29.94 in SSE 8 mph 17 mph 46% 0 in 900.00 W/m2
14:29 56.6 °F 34.3 °F 29.94 in SSE 8 mph 19 mph 43% 0 in 898.00 W/m2
14:34 56.5 °F 35.4 °F 29.94 in South 15 mph 21 mph 45% 0 in 896.00 W/m2
14:39 57.3 °F 35 °F 29.94 in SSE 10 mph 21 mph 43% 0 in 893.00 W/m2
14:44 56.5 °F 33.7 °F 29.93 in ESE 15 mph 20 mph 42% 0 in 889.00 W/m2
14:49 56.6 °F 33.8 °F 29.93 in South 14 mph 20 mph 42% 0 in 886.00 W/m2
14:54 57.3 °F 35 °F 29.93 in SSE 8 mph 20 mph 43% 0 in 879.00 W/m2
14:59 57.2 °F 33.1 °F 29.93 in South 10 mph 18 mph 40% 0 in 874.00 W/m2
15:04 57.4 °F 35.1 °F 29.92 in SE 8 mph 18 mph 43% 0 in 854.00 W/m2
15:09 57.5 °F 34 °F 29.92 in SSE 15 mph 22 mph 41% 0 in 828.00 W/m2
15:14 57.3 °F 35 °F 29.92 in SW 11 mph 22 mph 43% 0 in 828.00 W/m2
15:19 57.7 °F 34.7 °F 29.91 in South 11 mph 21 mph 42% 0 in 809.00 W/m2
15:24 57.7 °F 32.9 °F 29.91 in SSW 16 mph 21 mph 39% 0 in 791.00 W/m2
15:29 57.5 °F 35.2 °F 29.91 in SSE 15 mph 15 mph 43% 0 in 791.00 W/m2
15:34 58 °F 35.6 °F 29.91 in SSW 10 mph 15 mph 43% 0 in 766.00 W/m2
15:39 58.4 °F 34.2 °F 29.90 in SSW 10 mph 15 mph 40% 0 in 729.00 W/m2
15:44 58.2 °F 34 °F 29.90 in SSE 7 mph 15 mph 40% 0 in 752.00 W/m2
15:49 57.8 °F 33.6 °F 29.90 in South 14 mph 24 mph 40% 0 in 745.00 W/m2
15:54 57.7 °F 33.5 °F 29.90 in South 10 mph 24 mph 40% 0 in 714.00 W/m2
15:59 58 °F 33.8 °F 29.90 in South 16 mph 19 mph 40% 0 in 756.00 W/m2
16:04 58.3 °F 34.7 °F 29.89 in SSE 15 mph 19 mph 41% 0 in 759.00 W/m2
16:09 58.2 °F 34 °F 29.89 in South 6 mph 16 mph 40% 0 in 772.00 W/m2
16:14 58.5 °F 34.2 °F 29.89 in SSW 9 mph 15 mph 40% 0 in 754.00 W/m2
16:19 58.9 °F 33.3 °F 29.89 in South 11 mph 16 mph 38% 0 in 754.00 W/m2
16:24 58.9 °F 35.2 °F 29.88 in SSE 7 mph 19 mph 41% 0 in 749.00 W/m2
16:29 59.1 °F 36 °F 29.88 in ESE 16 mph 19 mph 42% 0 in 722.00 W/m2
16:34 58.7 °F 33.1 °F 29.88 in SSE 10 mph 23 mph 38% 0 in 717.00 W/m2
16:39 58.9 °F 35.8 °F 29.88 in South 13 mph 23 mph 42% 0 in 737.00 W/m2
16:44 59.1 °F 37.8 °F 29.88 in South 15 mph 18 mph 45% 0 in 731.00 W/m2
16:49 59 °F 34.1 °F 29.88 in South 8 mph 18 mph 39% 0 in 645.00 W/m2
16:54 59 °F 35.9 °F 29.87 in South 12 mph 21 mph 42% 0 in 680.00 W/m2
16:59 59 °F 35.9 °F 29.87 in SSE 13 mph 21 mph 42% 0 in 661.00 W/m2
17:04 59.4 °F 36.3 °F 29.87 in South 14 mph 18 mph 42% 0 in 645.00 W/m2
17:09 59.6 °F 34.6 °F 29.86 in SSW 5 mph 19 mph 39% 0 in 633.00 W/m2
17:14 59.5 °F 33.9 °F 29.86 in SE 8 mph 22 mph 38% 0 in 617.00 W/m2
17:19 59.3 °F 33.7 °F 29.86 in South 12 mph 22 mph 38% 0 in 603.00 W/m2
17:25 59.5 °F 34.5 °F 29.86 in South 12 mph 22 mph 39% 0 in 589.00 W/m2
17:30 59.9 °F 36.1 °F 29.86 in SE 16 mph 19 mph 41% 0 in 580.00 W/m2
17:34 59.9 °F 36.1 °F 29.85 in SE 14 mph 19 mph 41% 0 in 563.00 W/m2
17:39 59.6 °F 35.2 °F 29.84 in SE 21 mph 21 mph 40% 0 in 548.00 W/m2
17:44 59.2 °F 34.2 °F 29.85 in South 12 mph 27 mph 39% 0 in 533.00 W/m2
17:49 58.9 °F 35.2 °F 29.85 in SSE 15 mph 27 mph 41% 0 in 503.00 W/m2
17:54 58.5 °F 34.9 °F 29.85 in SSE 7 mph 22 mph 41% 0 in 508.00 W/m2
17:59 58.7 °F 35 °F 29.84 in SE 17 mph 22 mph 41% 0 in 501.00 W/m2
18:04 58.7 °F 35.7 °F 29.84 in SE 20 mph 23 mph 42% 0 in 475.00 W/m2
18:09 58.9 °F 34.6 °F 29.84 in SE 19 mph 23 mph 40% 0 in 466.00 W/m2
18:14 59 °F 34.7 °F 29.84 in SSE 15 mph 23 mph 40% 0 in 441.00 W/m2
18:19 59 °F 34.1 °F 29.84 in SSE 13 mph 22 mph 39% 0 in 431.00 W/m2
18:24 58.8 °F 33.2 °F 29.84 in SE 17 mph 25 mph 38% 0 in 418.00 W/m2
18:29 58.9 °F 33.3 °F 29.83 in SE 15 mph 25 mph 38% 0 in 404.00 W/m2
18:34 58.7 °F 33.1 °F 29.83 in SE 13 mph 20 mph 38% 0 in 392.00 W/m2
18:39 58.9 °F 32.7 °F 29.83 in SE 13 mph 20 mph 37% 0 in 378.00 W/m2
18:44 58.9 °F 33.3 °F 29.83 in SSE 11 mph 19 mph 38% 0 in 360.00 W/m2
18:49 59 °F 32.1 °F 29.83 in SE 11 mph 21 mph 36% 0 in 345.00 W/m2
18:54 58.8 °F 32.6 °F 29.83 in South 10 mph 21 mph 37% 0 in 329.00 W/m2
18:59 59 °F 32.1 °F 29.83 in SE 10 mph 21 mph 36% 0 in 308.00 W/m2
19:04 59.1 °F 32.8 °F 29.83 in SE 10 mph 18 mph 37% 0 in 292.00 W/m2
19:09 59 °F 30.6 °F 29.83 in SSE 14 mph 17 mph 34% 0 in 276.00 W/m2
19:14 58.6 °F 31 °F 29.83 in SE 12 mph 21 mph 35% 0 in 258.00 W/m2
19:19 58.5 °F 30.9 °F 29.83 in SSE 14 mph 21 mph 35% 0 in 234.00 W/m2
19:24 58.4 °F 31.5 °F 29.83 in SSE 16 mph 20 mph 36% 0 in 216.00 W/m2
19:30 58.3 °F 31.4 °F 29.83 in SSE 10 mph 19 mph 36% 0 in 185.00 W/m2
19:35 58 °F 31.2 °F 29.83 in SSE 12 mph 19 mph 36% 0 in 162.00 W/m2
19:39 57.8 °F 31.7 °F 29.83 in SSE 11 mph 22 mph 37% 0 in 118.00 W/m2
19:44 57.4 °F 31.3 °F 29.83 in SSE 15 mph 22 mph 37% 0 in 77.00 W/m2
19:49 56.9 °F 31.5 °F 29.82 in SE 15 mph 17 mph 38% 0 in 91.00 W/m2
19:54 56.7 °F 32 °F 29.82 in SE 10 mph 19 mph 39% 0 in 53.00 W/m2
19:59 56.3 °F 32.3 °F 29.83 in SSE 8 mph 19 mph 40% 0 in 46.00 W/m2
20:04 56 °F 32 °F 29.82 in South 9 mph 14 mph 40% 0 in 58.00 W/m2
20:09 55.9 °F 32.5 °F 29.82 in SSE 9 mph 13 mph 41% 0 in 56.00 W/m2
20:14 55.7 °F 32.3 °F 29.82 in SSE 17 mph 18 mph 41% 0 in 39.00 W/m2
20:19 55.5 °F 32.8 °F 29.82 in SE 11 mph 18 mph 42% 0 in 35.00 W/m2
20:24 55.1 °F 32.4 °F 29.82 in SSE 10 mph 15 mph 42% 0 in 33.00 W/m2
20:29 54.8 °F 32.1 °F 29.82 in SE 9 mph 15 mph 42% 0 in 26.00 W/m2
20:34 54.4 °F 32.3 °F 29.82 in ESE 10 mph 15 mph 43% 0 in 19.00 W/m2
20:39 54.2 °F 32.2 °F 29.82 in SE 10 mph 14 mph 43% 0 in 12.00 W/m2
20:44 53.9 °F 32.5 °F 29.82 in SE 9 mph 15 mph 44% 0 in 9.00 W/m2
20:49 53.3 °F 32.5 °F 29.82 in SE 9 mph 15 mph 45% 0 in 5.00 W/m2
20:54 53.1 °F 32.3 °F 29.82 in SSE 8 mph 14 mph 45% 0 in 5.00 W/m2
20:59 52.6 °F 32.4 °F 29.82 in SE 10 mph 13 mph 46% 0 in 0.00 W/m2
21:04 52.3 °F 33.2 °F 29.82 in SE 9 mph 13 mph 48% 0 in 0.00 W/m2
21:09 51.8 °F 32.7 °F 29.82 in SE 9 mph 11 mph 48% 0 in 0.00 W/m2
21:14 51.3 °F 33.3 °F 29.82 in ESE 10 mph 11 mph 50% 0 in 0.00 W/m2
21:19 50.7 °F 33.2 °F 29.82 in SE 10 mph 11 mph 51% 0 in 0.00 W/m2
21:24 50.3 °F 33.3 °F 29.82 in ESE 5 mph 11 mph 52% 0 in 0.00 W/m2
21:29 49.8 °F 33.3 °F 29.82 in SE 8 mph 12 mph 53% 0 in 0.00 W/m2
21:34 49.4 °F 33.4 °F 29.82 in ESE 8 mph 12 mph 54% 0 in 0.00 W/m2
21:39 49.2 °F 33.3 °F 29.82 in ESE 8 mph 11 mph 54% 0 in 0.00 W/m2
21:44 49 °F 33.5 °F 29.82 in ESE 8 mph 11 mph 55% 0 in 0.00 W/m2
21:49 48.7 °F 33.2 °F 29.82 in SE 7 mph 11 mph 55% 0 in 0.00 W/m2
21:54 48.6 °F 33.1 °F 29.82 in SE 8 mph 11 mph 55% 0 in 0.00 W/m2
21:59 48.5 °F 33.5 °F 29.83 in SE 8 mph 12 mph 56% 0 in 0.00 W/m2
22:04 48.3 °F 33.3 °F 29.83 in ESE 10 mph 12 mph 56% 0 in 0.00 W/m2
22:09 48.3 °F 33.3 °F 29.83 in ESE 9 mph 10 mph 56% 0 in 0.00 W/m2
22:14 48.4 °F 33.4 °F 29.83 in ESE 7 mph 10 mph 56% 0 in 0.00 W/m2
22:19 48.5 °F 33.5 °F 29.83 in SE 7 mph 9 mph 56% 0 in 0.00 W/m2
22:24 48.4 °F 33.9 °F 29.85 in SW 5 mph 9 mph 57% 0 in 0.00 W/m2
22:29 48.6 °F 34.5 °F 29.86 in WSW 11 mph 17 mph 58% 0 in 0.00 W/m2
22:34 50.9 °F 33.4 °F 29.86 in WSW 10 mph 19 mph 51% 0 in 0.00 W/m2
22:39 51.9 °F 33.3 °F 29.86 in SSE 15 mph 19 mph 49% 0 in 0.00 W/m2
22:44 53 °F 34.3 °F 29.87 in South 11 mph 30 mph 49% 0 in 0.00 W/m2
22:49 53.2 °F 34 °F 29.86 in SSE 7 mph 30 mph 48% 0 in 0.00 W/m2
22:54 53.2 °F 34.5 °F 29.86 in WSW 5 mph 16 mph 49% 0 in 0.00 W/m2
22:59 53.1 °F 35.9 °F 29.86 in South 12 mph 16 mph 52% 0 in 0.00 W/m2
23:04 52.4 °F 36.7 °F 29.86 in South 10 mph 15 mph 55% 0 in 0.00 W/m2
23:09 51.9 °F 36.7 °F 29.86 in SSW 5 mph 15 mph 56% 0 in 0.00 W/m2
23:14 51.5 °F 36.8 °F 29.86 in SSW 9 mph 14 mph 57% 0 in 0.00 W/m2
23:19 51 °F 38 °F 29.87 in SW 9 mph 15 mph 61% 0 in 0.00 W/m2
23:24 49.9 °F 39.4 °F 29.87 in SSW 11 mph 22 mph 67% 0 in 0.00 W/m2
23:29 48.8 °F 40.2 °F 29.86 in SSW 8 mph 22 mph 72% 0.01 in 0.00 W/m2
23:34 48.2 °F 40.6 °F 29.87 in SSW 8 mph 17 mph 75% 0.01 in 0.00 W/m2
23:39 47.7 °F 40.8 °F 29.86 in SSW 7 mph 17 mph 77% 0.01 in 0.00 W/m2
23:44 47.2 °F 41 °F 29.86 in South 6 mph 11 mph 79% 0.02 in 0.00 W/m2
23:49 46.8 °F 41 °F 29.85 in SSW 7 mph 11 mph 80% 0.02 in 0.00 W/m2
23:54 46.8 °F 41.3 °F 29.85 in SE 8 mph 11 mph 81% 0.02 in 0.00 W/m2
23:59 46.8 °F 41.3 °F 29.84 in SSE 10 mph 13 mph 81% 0.02 in 0.00 W/m2
Bismarck, North Dakota, USA
Compliments of Weather Underground - 4 mb